sensor_id;sensor_type;location;lat;lon;timestamp;pressure;altitude;pressure_sealevel;temperature;humidity
8890;BME280;4481;43.406;24.454;2022-09-27T00:00:11;75617.66;;;-144.09;100.00
8890;BME280;4481;43.406;24.454;2022-09-27T00:02:38;75623.94;;;-144.09;100.00
8890;BME280;4481;43.406;24.454;2022-09-27T00:05:05;75621.84;;;-144.09;100.00
8890;BME280;4481;43.406;24.454;2022-09-27T00:07:31;75615.59;;;-144.09;100.00
8890;BME280;4481;43.406;24.454;2022-09-27T00:09:57;75617.66;;;-144.09;100.00
8890;BME280;4481;43.406;24.454;2022-09-27T00:12:23;75649.00;;;-144.09;100.00
8890;BME280;4481;43.406;24.454;2022-09-27T00:14:50;75672.00;;;-144.09;100.00
8890;BME280;4481;43.406;24.454;2022-09-27T00:17:16;75661.53;;;-144.09;100.00
8890;BME280;4481;43.406;24.454;2022-09-27T00:19:42;75653.19;;;-144.09;100.00
8890;BME280;4481;43.406;24.454;2022-09-27T00:22:09;75653.19;;;-144.09;100.00
8890;BME280;4481;43.406;24.454;2022-09-27T00:24:35;75649.00;;;-144.09;100.00
8890;BME280;4481;43.406;24.454;2022-09-27T00:27:01;75644.84;;;-144.09;100.00
8890;BME280;4481;43.406;24.454;2022-09-27T00:29:27;75649.00;;;-144.09;100.00
8890;BME280;4481;43.406;24.454;2022-09-27T00:31:54;75649.00;;;-144.09;100.00
8890;BME280;4481;43.406;24.454;2022-09-27T00:34:21;75644.84;;;-144.09;100.00
8890;BME280;4481;43.406;24.454;2022-09-27T00:36:48;75632.28;;;-144.09;100.00
8890;BME280;4481;43.406;24.454;2022-09-27T00:39:15;75638.56;;;-144.09;100.00
8890;BME280;4481;43.406;24.454;2022-09-27T00:41:41;75651.09;;;-144.09;100.00
8890;BME280;4481;43.406;24.454;2022-09-27T00:47:12;75655.28;;;-144.09;100.00
8890;BME280;4481;43.406;24.454;2022-09-27T00:49:43;75659.44;;;-144.09;100.00
8890;BME280;4481;43.406;24.454;2022-09-27T00:52:16;75655.28;;;-144.09;100.00
8890;BME280;4481;43.406;24.454;2022-09-27T00:54:48;75663.63;;;-144.09;100.00
8890;BME280;4481;43.406;24.454;2022-09-27T00:57:16;75661.53;;;-144.09;100.00
8890;BME280;4481;43.406;24.454;2022-09-27T00:59:45;75659.44;;;-144.09;100.00
8890;BME280;4481;43.406;24.454;2022-09-27T01:02:13;75642.75;;;-144.09;100.00
8890;BME280;4481;43.406;24.454;2022-09-27T01:04:40;75642.75;;;-144.09;100.00
8890;BME280;4481;43.406;24.454;2022-09-27T01:07:08;75638.56;;;-144.09;100.00
8890;BME280;4481;43.406;24.454;2022-09-27T01:09:34;75640.66;;;-144.09;100.00
8890;BME280;4481;43.406;24.454;2022-09-27T01:12:08;75678.25;;;-144.09;100.00
8890;BME280;4481;43.406;24.454;2022-09-27T01:14:44;75669.91;;;-144.09;100.00
8890;BME280;4481;43.406;24.454;2022-09-27T01:17:24;75657.38;;;-144.09;100.00
8890;BME280;4481;43.406;24.454;2022-09-27T01:20:11;75655.28;;;-144.09;100.00
8890;BME280;4481;43.406;24.454;2022-09-27T01:22:47;75642.75;;;-144.09;100.00
8890;BME280;4481;43.406;24.454;2022-09-27T01:25:33;75638.56;;;-144.09;100.00
8890;BME280;4481;43.406;24.454;2022-09-27T01:28:16;75638.56;;;-144.09;100.00
8890;BME280;4481;43.406;24.454;2022-09-27T01:30:46;75636.47;;;-144.09;100.00
8890;BME280;4481;43.406;24.454;2022-09-27T01:33:30;75617.66;;;-144.09;100.00
8890;BME280;4481;43.406;24.454;2022-09-27T01:36:10;75669.91;;;-144.09;100.00
8890;BME280;4481;43.406;24.454;2022-09-27T01:38:46;75715.84;;;-144.09;100.00
8890;BME280;4481;43.406;24.454;2022-09-27T01:41:25;75690.78;;;-144.09;100.00
8890;BME280;4481;43.406;24.454;2022-09-27T01:43:56;75674.06;;;-144.09;100.00
8890;BME280;4481;43.406;24.454;2022-09-27T01:46:28;75699.16;;;-144.09;100.00
8890;BME280;4481;43.406;24.454;2022-09-27T01:48:58;75705.41;;;-144.09;100.00
8890;BME280;4481;43.406;24.454;2022-09-27T01:51:29;75711.69;;;-144.09;100.00
8890;BME280;4481;43.406;24.454;2022-09-27T01:54:00;75722.13;;;-144.09;100.00
8890;BME280;4481;43.406;24.454;2022-09-27T01:56:31;75686.59;;;-144.09;100.00
8890;BME280;4481;43.406;24.454;2022-09-27T01:59:01;75682.44;;;-144.09;100.00
8890;BME280;4481;43.406;24.454;2022-09-27T02:01:31;75678.25;;;-144.09;100.00
8890;BME280;4481;43.406;24.454;2022-09-27T02:04:00;75682.44;;;-144.09;100.00
8890;BME280;4481;43.406;24.454;2022-09-27T02:06:30;75667.81;;;-144.09;100.00
8890;BME280;4481;43.406;24.454;2022-09-27T02:09:03;75657.38;;;-144.09;100.00
8890;BME280;4481;43.406;24.454;2022-09-27T02:11:32;75651.09;;;-144.09;100.00
8890;BME280;4481;43.406;24.454;2022-09-27T02:14:05;75646.91;;;-144.09;100.00
8890;BME280;4481;43.406;24.454;2022-09-27T02:16:43;75644.84;;;-144.09;100.00
8890;BME280;4481;43.406;24.454;2022-09-27T02:19:20;75638.56;;;-144.09;100.00
8890;BME280;4481;43.406;24.454;2022-09-27T02:21:54;75626.03;;;-144.09;100.00
8890;BME280;4481;43.406;24.454;2022-09-27T02:24:27;75644.84;;;-144.09;100.00
8890;BME280;4481;43.406;24.454;2022-09-27T02:27:01;75655.28;;;-144.09;100.00
8890;BME280;4481;43.406;24.454;2022-09-27T02:29:34;75646.91;;;-144.09;100.00
8890;BME280;4481;43.406;24.454;2022-09-27T02:32:04;75649.00;;;-144.09;100.00
8890;BME280;4481;43.406;24.454;2022-09-27T02:34:31;75646.91;;;-144.09;100.00
8890;BME280;4481;43.406;24.454;2022-09-27T02:36:59;75651.09;;;-144.09;100.00
8890;BME280;4481;43.406;24.454;2022-09-27T02:39:26;75632.28;;;-144.09;100.00
8890;BME280;4481;43.406;24.454;2022-09-27T02:41:52;75642.75;;;-144.09;100.00
8890;BME280;4481;43.406;24.454;2022-09-27T02:44:23;75632.28;;;-144.09;100.00
8890;BME280;4481;43.406;24.454;2022-09-27T02:47:08;75636.47;;;-144.09;100.00
8890;BME280;4481;43.406;24.454;2022-09-27T02:49:48;75636.47;;;-144.09;100.00
8890;BME280;4481;43.406;24.454;2022-09-27T02:52:26;75644.84;;;-144.09;100.00
8890;BME280;4481;43.406;24.454;2022-09-27T02:55:05;75634.38;;;-144.09;100.00
8890;BME280;4481;43.406;24.454;2022-09-27T02:57:40;75628.13;;;-144.09;100.00
8890;BME280;4481;43.406;24.454;2022-09-27T03:00:15;75617.66;;;-144.09;100.00
8890;BME280;4481;43.406;24.454;2022-09-27T03:02:50;75621.84;;;-144.09;100.00
8890;BME280;4481;43.406;24.454;2022-09-27T03:05:20;75619.75;;;-144.09;100.00
8890;BME280;4481;43.406;24.454;2022-09-27T03:07:47;75640.66;;;-144.09;100.00
8890;BME280;4481;43.406;24.454;2022-09-27T03:10:15;75644.84;;;-144.09;100.00
8890;BME280;4481;43.406;24.454;2022-09-27T03:12:42;75651.09;;;-144.09;100.00
8890;BME280;4481;43.406;24.454;2022-09-27T03:15:09;75640.66;;;-144.09;100.00
8890;BME280;4481;43.406;24.454;2022-09-27T03:17:35;75630.22;;;-144.09;100.00
8890;BME280;4481;43.406;24.454;2022-09-27T03:20:02;75621.84;;;-144.09;100.00
8890;BME280;4481;43.406;24.454;2022-09-27T03:22:29;75638.56;;;-144.09;100.00
8890;BME280;4481;43.406;24.454;2022-09-27T03:24:55;75619.75;;;-144.09;100.00
8890;BME280;4481;43.406;24.454;2022-09-27T03:27:21;75607.22;;;-144.09;100.00
8890;BME280;4481;43.406;24.454;2022-09-27T03:29:48;75615.59;;;-144.09;100.00
8890;BME280;4481;43.406;24.454;2022-09-27T03:32:14;75607.22;;;-144.09;100.00
8890;BME280;4481;43.406;24.454;2022-09-27T03:34:40;75598.88;;;-144.09;100.00
8890;BME280;4481;43.406;24.454;2022-09-27T03:37:07;75596.78;;;-144.09;100.00
8890;BME280;4481;43.406;24.454;2022-09-27T03:39:33;75586.34;;;-144.09;100.00
8890;BME280;4481;43.406;24.454;2022-09-27T03:41:59;75590.50;;;-144.09;100.00
8890;BME280;4481;43.406;24.454;2022-09-27T03:44:25;75615.59;;;-144.09;100.00
8890;BME280;4481;43.406;24.454;2022-09-27T03:46:51;75626.03;;;-144.09;100.00
8890;BME280;4481;43.406;24.454;2022-09-27T03:49:17;75628.13;;;-144.09;100.00
8890;BME280;4481;43.406;24.454;2022-09-27T03:51:44;75615.59;;;-144.09;100.00
8890;BME280;4481;43.406;24.454;2022-09-27T03:54:10;75617.66;;;-144.09;100.00
8890;BME280;4481;43.406;24.454;2022-09-27T03:56:37;75630.22;;;-144.09;100.00
8890;BME280;4481;43.406;24.454;2022-09-27T03:59:03;75626.03;;;-144.09;100.00
8890;BME280;4481;43.406;24.454;2022-09-27T04:01:29;75634.38;;;-144.09;100.00
8890;BME280;4481;43.406;24.454;2022-09-27T04:03:55;75611.41;;;-144.09;100.00
8890;BME280;4481;43.406;24.454;2022-09-27T04:06:21;75586.34;;;-144.09;100.00
8890;BME280;4481;43.406;24.454;2022-09-27T04:08:48;75582.16;;;-144.09;100.00
8890;BME280;4481;43.406;24.454;2022-09-27T04:11:15;75586.34;;;-144.09;100.00
8890;BME280;4481;43.406;24.454;2022-09-27T04:13:41;75582.16;;;-144.09;100.00
8890;BME280;4481;43.406;24.454;2022-09-27T04:16:09;75573.81;;;-144.09;100.00
8890;BME280;4481;43.406;24.454;2022-09-27T04:18:35;75567.53;;;-144.09;100.00
8890;BME280;4481;43.406;24.454;2022-09-27T04:21:01;75575.91;;;-144.09;100.00
8890;BME280;4481;43.406;24.454;2022-09-27T04:23:28;75557.09;;;-144.09;100.00
8890;BME280;4481;43.406;24.454;2022-09-27T04:25:54;75542.47;;;-144.09;100.00
8890;BME280;4481;43.406;24.454;2022-09-27T04:28:20;75527.84;;;-144.09;100.00
8890;BME280;4481;43.406;24.454;2022-09-27T04:30:50;75534.13;;;-144.09;100.00
8890;BME280;4481;43.406;24.454;2022-09-27T04:33:16;75538.28;;;-144.09;100.00
8890;BME280;4481;43.406;24.454;2022-09-27T04:35:42;75511.13;;;-144.09;100.00
8890;BME280;4481;43.406;24.454;2022-09-27T04:38:26;75506.97;;;-144.09;100.00
8890;BME280;4481;43.406;24.454;2022-09-27T04:40:52;75504.88;;;-144.09;100.00
8890;BME280;4481;43.406;24.454;2022-09-27T04:43:19;75521.59;;;-144.09;100.00
8890;BME280;4481;43.406;24.454;2022-09-27T04:45:45;75542.47;;;-144.09;100.00
8890;BME280;4481;43.406;24.454;2022-09-27T04:48:11;75563.34;;;-144.09;100.00
8890;BME280;4481;43.406;24.454;2022-09-27T04:50:38;75575.91;;;-144.09;100.00
8890;BME280;4481;43.406;24.454;2022-09-27T04:53:04;75555.00;;;-144.09;100.00
8890;BME280;4481;43.406;24.454;2022-09-27T04:55:31;75557.09;;;-144.09;100.00
8890;BME280;4481;43.406;24.454;2022-09-27T04:57:58;75550.81;;;-144.09;100.00
8890;BME280;4481;43.406;24.454;2022-09-27T05:00:26;75529.94;;;-144.09;100.00
8890;BME280;4481;43.406;24.454;2022-09-27T05:02:53;75496.50;;;-144.09;100.00
8890;BME280;4481;43.406;24.454;2022-09-27T05:05:19;75488.16;;;-144.09;100.00
8890;BME280;4481;43.406;24.454;2022-09-27T05:07:46;75494.44;;;-144.09;100.00
8890;BME280;4481;43.406;24.454;2022-09-27T05:10:12;75496.50;;;-144.09;100.00
8890;BME280;4481;43.406;24.454;2022-09-27T05:12:39;75492.34;;;-144.09;100.00
8890;BME280;4481;43.406;24.454;2022-09-27T05:15:06;75486.06;;;-144.09;100.00
8890;BME280;4481;43.406;24.454;2022-09-27T05:17:33;75473.53;;;-144.09;100.00
8890;BME280;4481;43.406;24.454;2022-09-27T05:20:00;75467.28;;;-144.09;100.00
8890;BME280;4481;43.406;24.454;2022-09-27T05:22:26;75456.81;;;-144.09;100.00
8890;BME280;4481;43.406;24.454;2022-09-27T05:24:53;75446.38;;;-144.09;100.00
8890;BME280;4481;43.406;24.454;2022-09-27T05:27:19;75433.84;;;-144.09;100.00
8890;BME280;4481;43.406;24.454;2022-09-27T05:29:45;75423.41;;;-144.09;100.00
8890;BME280;4481;43.406;24.454;2022-09-27T05:32:12;75421.31;;;-144.09;100.00
8890;BME280;4481;43.406;24.454;2022-09-27T05:34:38;75408.78;;;-144.09;100.00
8890;BME280;4481;43.406;24.454;2022-09-27T05:37:05;75394.16;;;-144.09;100.00
8890;BME280;4481;43.406;24.454;2022-09-27T05:39:31;75389.97;;;-144.09;100.00
8890;BME280;4481;43.406;24.454;2022-09-27T05:41:58;75381.63;;;-144.09;100.00
8890;BME280;4481;43.406;24.454;2022-09-27T05:44:24;75375.34;;;-144.09;100.00
8890;BME280;4481;43.406;24.454;2022-09-27T05:46:50;75383.72;;;-144.09;100.00
8890;BME280;4481;43.406;24.454;2022-09-27T05:49:17;75373.28;;;-144.09;100.00
8890;BME280;4481;43.406;24.454;2022-09-27T05:51:43;75369.09;;;-144.09;100.00
8890;BME280;4481;43.406;24.454;2022-09-27T05:54:10;75369.09;;;-144.09;100.00
8890;BME280;4481;43.406;24.454;2022-09-27T05:56:36;75362.81;;;-144.09;100.00
8890;BME280;4481;43.406;24.454;2022-09-27T05:59:02;75358.66;;;-144.09;100.00
8890;BME280;4481;43.406;24.454;2022-09-27T06:01:29;75377.44;;;-144.09;100.00
8890;BME280;4481;43.406;24.454;2022-09-27T06:03:55;75381.63;;;-144.09;100.00
8890;BME280;4481;43.406;24.454;2022-09-27T06:06:21;75383.72;;;-144.09;100.00
8890;BME280;4481;43.406;24.454;2022-09-27T06:08:48;75373.28;;;-144.09;100.00
8890;BME280;4481;43.406;24.454;2022-09-27T06:11:15;75379.53;;;-144.09;100.00
8890;BME280;4481;43.406;24.454;2022-09-27T06:13:41;75364.91;;;-144.09;100.00
8890;BME280;4481;43.406;24.454;2022-09-27T06:16:09;75341.94;;;-144.09;100.00
8890;BME280;4481;43.406;24.454;2022-09-27T06:18:36;75354.47;;;-144.09;100.00
8890;BME280;4481;43.406;24.454;2022-09-27T06:21:03;75350.28;;;-144.09;100.00
8890;BME280;4481;43.406;24.454;2022-09-27T06:23:30;75339.84;;;-144.09;100.00
8890;BME280;4481;43.406;24.454;2022-09-27T06:26:00;75339.84;;;-144.09;100.00
8890;BME280;4481;43.406;24.454;2022-09-27T06:28:28;75371.19;;;-144.09;100.00
8890;BME280;4481;43.406;24.454;2022-09-27T06:30:54;75371.19;;;-144.09;100.00
8890;BME280;4481;43.406;24.454;2022-09-27T06:33:20;75354.47;;;-144.09;100.00
8890;BME280;4481;43.406;24.454;2022-09-27T06:35:46;75369.09;;;-144.09;100.00
8890;BME280;4481;43.406;24.454;2022-09-27T06:38:15;75394.16;;;-144.09;100.00
8890;BME280;4481;43.406;24.454;2022-09-27T06:40:44;75400.44;;;-144.09;100.00
8890;BME280;4481;43.406;24.454;2022-09-27T06:43:12;75377.44;;;-144.09;100.00
8890;BME280;4481;43.406;24.454;2022-09-27T06:45:40;75346.13;;;-144.09;100.00
8890;BME280;4481;43.406;24.454;2022-09-27T06:48:09;75331.50;;;-144.09;100.00
8890;BME280;4481;43.406;24.454;2022-09-27T06:50:39;75341.94;;;-144.09;100.00
8890;BME280;4481;43.406;24.454;2022-09-27T06:53:06;75323.13;;;-144.09;100.00
8890;BME280;4481;43.406;24.454;2022-09-27T06:55:32;75312.69;;;-144.09;100.00
8890;BME280;4481;43.406;24.454;2022-09-27T06:58:00;75298.06;;;-144.09;100.00
8890;BME280;4481;43.406;24.454;2022-09-27T07:00:48;75295.97;;;-144.09;100.00
8890;BME280;4481;43.406;24.454;2022-09-27T07:03:15;75287.63;;;-144.09;100.00
8890;BME280;4481;43.406;24.454;2022-09-27T07:05:41;75281.38;;;-144.09;100.00
8890;BME280;4481;43.406;24.454;2022-09-27T07:08:08;75273.00;;;-144.09;100.00
8890;BME280;4481;43.406;24.454;2022-09-27T07:10:37;75285.53;;;-144.09;100.00
8890;BME280;4481;43.406;24.454;2022-09-27T07:13:05;75281.38;;;-144.09;100.00
8890;BME280;4481;43.406;24.454;2022-09-27T07:15:31;75262.56;;;-144.09;100.00
8890;BME280;4481;43.406;24.454;2022-09-27T07:18:00;75254.22;;;-144.09;100.00
8890;BME280;4481;43.406;24.454;2022-09-27T07:20:27;75245.84;;;-144.09;100.00
8890;BME280;4481;43.406;24.454;2022-09-27T07:22:54;75245.84;;;-144.09;100.00
8890;BME280;4481;43.406;24.454;2022-09-27T07:25:24;75254.22;;;-144.09;100.00
8890;BME280;4481;43.406;24.454;2022-09-27T07:27:51;75252.13;;;-144.09;100.00
8890;BME280;4481;43.406;24.454;2022-09-27T07:30:18;75245.84;;;-144.09;100.00
8890;BME280;4481;43.406;24.454;2022-09-27T07:32:44;75260.47;;;-144.09;100.00
8890;BME280;4481;43.406;24.454;2022-09-27T07:35:12;75262.56;;;-144.09;100.00
8890;BME280;4481;43.406;24.454;2022-09-27T07:37:39;75264.66;;;-144.09;100.00
8890;BME280;4481;43.406;24.454;2022-09-27T07:40:07;75256.28;;;-144.09;100.00
8890;BME280;4481;43.406;24.454;2022-09-27T07:42:34;75262.56;;;-144.09;100.00
8890;BME280;4481;43.406;24.454;2022-09-27T07:45:02;75264.66;;;-144.09;100.00
8890;BME280;4481;43.406;24.454;2022-09-27T07:47:28;75260.47;;;-144.09;100.00
8890;BME280;4481;43.406;24.454;2022-09-27T07:49:55;75247.94;;;-144.09;100.00
8890;BME280;4481;43.406;24.454;2022-09-27T07:52:22;75227.06;;;-144.09;100.00
8890;BME280;4481;43.406;24.454;2022-09-27T07:54:48;75227.06;;;-144.09;100.00
8890;BME280;4481;43.406;24.454;2022-09-27T07:57:14;75214.53;;;-144.09;100.00
8890;BME280;4481;43.406;24.454;2022-09-27T07:59:41;75191.53;;;-144.09;100.00
8890;BME280;4481;43.406;24.454;2022-09-27T08:02:12;75164.41;;;-144.09;100.00
8890;BME280;4481;43.406;24.454;2022-09-27T08:04:39;75143.50;;;-144.09;100.00
8890;BME280;4481;43.406;24.454;2022-09-27T08:07:08;75124.72;;;-144.09;100.00
8890;BME280;4481;43.406;24.454;2022-09-27T08:09:36;75103.81;;;-144.09;99.17
8890;BME280;4481;43.406;24.454;2022-09-27T08:12:02;75122.63;;;-144.09;99.04
8890;BME280;4481;43.406;24.454;2022-09-27T08:14:29;75116.34;;;-144.09;98.30
8890;BME280;4481;43.406;24.454;2022-09-27T08:16:56;75095.47;;;-144.09;98.25
8890;BME280;4481;43.406;24.454;2022-09-27T08:19:22;75057.88;;;-144.09;97.73
8890;BME280;4481;43.406;24.454;2022-09-27T08:21:50;75032.81;;;-144.09;97.29
8890;BME280;4481;43.406;24.454;2022-09-27T08:24:16;74997.31;;;-144.09;96.11
8890;BME280;4481;43.406;24.454;2022-09-27T08:26:43;74991.03;;;-144.09;96.29
8890;BME280;4481;43.406;24.454;2022-09-27T08:29:09;75003.56;;;-144.09;96.38
8890;BME280;4481;43.406;24.454;2022-09-27T08:31:35;74995.22;;;-144.09;95.96
8890;BME280;4481;43.406;24.454;2022-09-27T08:34:02;74986.84;;;-144.09;95.96
8890;BME280;4481;43.406;24.454;2022-09-27T08:36:29;74982.69;;;-144.09;95.03
8890;BME280;4481;43.406;24.454;2022-09-27T08:38:56;74995.22;;;-144.09;96.17
8890;BME280;4481;43.406;24.454;2022-09-27T08:41:29;75064.13;;;-144.09;97.92
8890;BME280;4481;43.406;24.454;2022-09-27T08:44:08;75080.84;;;-144.09;98.80
8890;BME280;4481;43.406;24.454;2022-09-27T08:46:43;75049.50;;;-144.09;98.44
8890;BME280;4481;43.406;24.454;2022-09-27T08:49:17;75032.81;;;-144.09;98.33
8890;BME280;4481;43.406;24.454;2022-09-27T08:51:48;75043.25;;;-144.09;97.58
8890;BME280;4481;43.406;24.454;2022-09-27T08:54:20;75108.00;;;-144.09;99.90
8890;BME280;4481;43.406;24.454;2022-09-27T08:56:47;75114.25;;;-144.09;100.00
8890;BME280;4481;43.406;24.454;2022-09-27T08:59:15;75068.31;;;-144.09;99.49
8890;BME280;4481;43.406;24.454;2022-09-27T09:01:46;75045.34;;;-144.09;98.61
8890;BME280;4481;43.406;24.454;2022-09-27T09:04:16;75022.38;;;-144.09;98.00
8890;BME280;4481;43.406;24.454;2022-09-27T09:06:51;75007.75;;;-144.09;98.21
8890;BME280;4481;43.406;24.454;2022-09-27T09:09:31;74999.38;;;-144.09;97.88
8890;BME280;4481;43.406;24.454;2022-09-27T09:12:05;74980.59;;;-144.09;97.92
8890;BME280;4481;43.406;24.454;2022-09-27T09:15:07;74972.25;;;-144.09;97.82
8890;BME280;4481;43.406;24.454;2022-09-27T09:17:51;74974.31;;;-144.09;96.48
8890;BME280;4481;43.406;24.454;2022-09-27T09:20:27;74970.16;;;-144.09;96.41
8890;BME280;4481;43.406;24.454;2022-09-27T09:25:53;74934.66;;;-144.09;95.73
8890;BME280;4481;43.406;24.454;2022-09-27T09:28:33;74917.94;;;-144.09;95.05
8890;BME280;4481;43.406;24.454;2022-09-27T09:31:07;74907.50;;;-144.09;95.16
8890;BME280;4481;43.406;24.454;2022-09-27T09:33:38;74886.59;;;-144.09;94.12
8890;BME280;4481;43.406;24.454;2022-09-27T09:36:12;74865.72;;;-144.09;93.28
8890;BME280;4481;43.406;24.454;2022-09-27T09:38:50;74840.66;;;-144.09;92.53
8890;BME280;4481;43.406;24.454;2022-09-27T09:41:21;74805.16;;;-144.09;92.66
8890;BME280;4481;43.406;24.454;2022-09-27T09:43:54;74784.28;;;-144.09;92.14
8890;BME280;4481;43.406;24.454;2022-09-27T09:46:27;74763.38;;;-144.09;91.32
8890;BME280;4481;43.406;24.454;2022-09-27T09:48:57;74717.44;;;-144.09;90.82
8890;BME280;4481;43.406;24.454;2022-09-27T09:51:32;74700.72;;;-144.09;89.56
8890;BME280;4481;43.406;24.454;2022-09-27T09:54:06;74690.28;;;-144.09;87.87
8890;BME280;4481;43.406;24.454;2022-09-27T09:56:36;74671.50;;;-144.09;88.97
8890;BME280;4481;43.406;24.454;2022-09-27T09:59:10;74665.22;;;-144.09;88.58
8890;BME280;4481;43.406;24.454;2022-09-27T10:01:41;74646.44;;;-144.09;87.93
8890;BME280;4481;43.406;24.454;2022-09-27T10:04:08;74644.34;;;-144.09;88.58
8890;BME280;4481;43.406;24.454;2022-09-27T10:06:37;74621.38;;;-144.09;87.09
8890;BME280;4481;43.406;24.454;2022-09-27T10:09:03;74600.50;;;-144.09;87.06
8890;BME280;4481;43.406;24.454;2022-09-27T10:11:35;74583.78;;;-144.09;87.65
8890;BME280;4481;43.406;24.454;2022-09-27T10:14:02;74552.47;;;-144.09;87.42
8890;BME280;4481;43.406;24.454;2022-09-27T10:16:28;74550.38;;;-144.09;86.37
8890;BME280;4481;43.406;24.454;2022-09-27T10:18:59;74579.59;;;-144.09;86.67
8890;BME280;4481;43.406;24.454;2022-09-27T10:21:28;74573.34;;;-144.09;85.93
8890;BME280;4481;43.406;24.454;2022-09-27T10:24:03;74560.81;;;-144.09;86.83
8890;BME280;4481;43.406;24.454;2022-09-27T10:26:30;74552.47;;;-144.09;87.50
8890;BME280;4481;43.406;24.454;2022-09-27T10:28:57;74658.97;;;-144.09;87.32
8890;BME280;4481;43.406;24.454;2022-09-27T10:31:39;74640.16;;;-144.09;88.56
8890;BME280;4481;43.406;24.454;2022-09-27T10:34:17;74646.44;;;-144.09;89.28
8890;BME280;4481;43.406;24.454;2022-09-27T10:36:44;74629.72;;;-144.09;89.69
8890;BME280;4481;43.406;24.454;2022-09-27T10:39:21;74621.38;;;-144.09;88.18
8890;BME280;4481;43.406;24.454;2022-09-27T10:41:48;74623.47;;;-144.09;89.04
8890;BME280;4481;43.406;24.454;2022-09-27T10:44:24;74627.63;;;-144.09;88.12
8890;BME280;4481;43.406;24.454;2022-09-27T10:46:53;74636.00;;;-144.09;88.44
8890;BME280;4481;43.406;24.454;2022-09-27T10:49:24;74669.41;;;-144.09;89.81
8890;BME280;4481;43.406;24.454;2022-09-27T10:51:53;74667.31;;;-144.09;90.96
8890;BME280;4481;43.406;24.454;2022-09-27T10:54:21;74681.94;;;-144.09;90.99
8890;BME280;4481;43.406;24.454;2022-09-27T10:56:55;74679.84;;;-144.09;91.59
8890;BME280;4481;43.406;24.454;2022-09-27T10:59:22;74675.66;;;-144.09;91.71
8890;BME280;4481;43.406;24.454;2022-09-27T11:01:49;74696.56;;;-144.09;92.32
8890;BME280;4481;43.406;24.454;2022-09-27T11:04:20;74696.56;;;-144.09;93.37
8890;BME280;4481;43.406;24.454;2022-09-27T11:06:48;74700.72;;;-144.09;93.77
8890;BME280;4481;43.406;24.454;2022-09-27T11:09:17;74702.81;;;-144.09;92.57
8890;BME280;4481;43.406;24.454;2022-09-27T11:11:44;74702.81;;;-144.09;91.33
8890;BME280;4481;43.406;24.454;2022-09-27T11:14:17;74734.16;;;-144.09;92.50
8890;BME280;4481;43.406;24.454;2022-09-27T11:16:49;74729.97;;;-144.09;92.06
8890;BME280;4481;43.406;24.454;2022-09-27T11:19:40;74729.97;;;-144.09;92.62
8890;BME280;4481;43.406;24.454;2022-09-27T11:22:20;74711.16;;;-144.09;92.84
8890;BME280;4481;43.406;24.454;2022-09-27T11:24:59;74707.00;;;-144.09;92.25
8890;BME280;4481;43.406;24.454;2022-09-27T11:27:41;74686.09;;;-144.09;93.29
8890;BME280;4481;43.406;24.454;2022-09-27T11:30:14;74663.13;;;-144.09;91.38
8890;BME280;4481;43.406;24.454;2022-09-27T11:32:59;74646.44;;;-144.09;90.51
8890;BME280;4481;43.406;24.454;2022-09-27T11:35:42;74663.13;;;-144.09;91.43
8890;BME280;4481;43.406;24.454;2022-09-27T11:38:17;74631.81;;;-144.09;89.99
8890;BME280;4481;43.406;24.454;2022-09-27T11:41:09;74656.88;;;-144.09;90.97
8890;BME280;4481;43.406;24.454;2022-09-27T11:46:52;74575.44;;;-144.09;90.90
8890;BME280;4481;43.406;24.454;2022-09-27T11:49:46;74594.22;;;-144.09;90.46
8890;BME280;4481;43.406;24.454;2022-09-27T11:52:29;74592.13;;;-144.09;90.66
8890;BME280;4481;43.406;24.454;2022-09-27T11:55:19;74619.28;;;-144.09;91.44
8890;BME280;4481;43.406;24.454;2022-09-27T11:57:53;74604.66;;;-144.09;90.66
8890;BME280;4481;43.406;24.454;2022-09-27T12:00:34;74585.88;;;-144.09;90.10
8890;BME280;4481;43.406;24.454;2022-09-27T12:03:28;74562.91;;;-144.09;90.29
8890;BME280;4481;43.406;24.454;2022-09-27T12:06:05;74581.69;;;-144.09;90.71
8890;BME280;4481;43.406;24.454;2022-09-27T12:08:56;74560.81;;;-144.09;90.79
8890;BME280;4481;43.406;24.454;2022-09-27T12:11:31;74537.84;;;-144.09;91.76
8890;BME280;4481;43.406;24.454;2022-09-27T12:14:02;74539.94;;;-144.09;91.49
8890;BME280;4481;43.406;24.454;2022-09-27T12:16:31;74546.19;;;-144.09;91.14
8890;BME280;4481;43.406;24.454;2022-09-27T12:18:58;74573.34;;;-144.09;91.46
8890;BME280;4481;43.406;24.454;2022-09-27T12:21:26;74600.50;;;-144.09;91.53
8890;BME280;4481;43.406;24.454;2022-09-27T12:23:56;74629.72;;;-144.09;92.07
8890;BME280;4481;43.406;24.454;2022-09-27T12:26:27;74646.44;;;-144.09;92.53
8890;BME280;4481;43.406;24.454;2022-09-27T12:28:57;74650.59;;;-144.09;93.27
8890;BME280;4481;43.406;24.454;2022-09-27T12:31:29;74692.38;;;-144.09;93.94
8890;BME280;4481;43.406;24.454;2022-09-27T12:34:06;74715.34;;;-144.09;94.81
8890;BME280;4481;43.406;24.454;2022-09-27T12:36:41;74763.38;;;-144.09;96.88
8890;BME280;4481;43.406;24.454;2022-09-27T12:39:14;74823.94;;;-144.09;98.62
8890;BME280;4481;43.406;24.454;2022-09-27T12:41:47;74767.56;;;-144.09;97.42
8890;BME280;4481;43.406;24.454;2022-09-27T12:44:14;74786.34;;;-144.09;98.34
8890;BME280;4481;43.406;24.454;2022-09-27T12:46:49;74752.94;;;-144.09;98.52
8890;BME280;4481;43.406;24.454;2022-09-27T12:49:25;74763.38;;;-144.09;100.00
8890;BME280;4481;43.406;24.454;2022-09-27T12:51:56;74681.94;;;-144.09;98.80
8890;BME280;4481;43.406;24.454;2022-09-27T12:57:31;74642.25;;;-144.09;96.54
8890;BME280;4481;43.406;24.454;2022-09-27T13:00:08;74646.44;;;-144.09;95.70
8890;BME280;4481;43.406;24.454;2022-09-27T13:03:04;74688.19;;;-144.09;96.38
8890;BME280;4481;43.406;24.454;2022-09-27T13:06:09;74723.69;;;-144.09;96.52
8890;BME280;4481;43.406;24.454;2022-09-27T13:08:56;74690.28;;;-144.09;96.14
8890;BME280;4481;43.406;24.454;2022-09-27T13:11:35;74679.84;;;-144.09;96.14